Airport View

Enter AWOS ICAO identifier for current METAR.

ex. KFNL

KLOT 080415Z AUTO 05007KT 10SM CLR 22/21 A2999 RMK AO2 T02200210

8 Jul 2020 04:47

Frequency: 118.525

Phone: 815-588-4802

Other Area AWOS: KJOT - KC09 - KMDW - KDPA

TAF AMD KMDW 080258Z 0803/0906 35012G24KT P6SM VCTS SCT050CB BKN200 TEMPO 0803/0804 5SM -TSRA FM080400 35010KT P6SM -SHRA SCT060 BKN200 FM080600 21005KT P6SM SCT250 FM081900 08008KT P6SM SCT050